createdAt,value
2019-05-29T16:19:19.329Z,97098.27
2019-05-29T16:21:51.120Z,97108.38
2019-05-29T16:24:23.048Z,97110.50
2019-05-29T16:27:08.049Z,97109.80
2019-05-29T16:29:34.214Z,97113.66
2019-05-29T16:32:06.389Z,97116.02
2019-05-29T16:34:40.028Z,97116.27
2019-05-29T16:37:13.628Z,97118.69
2019-05-29T16:39:49.198Z,97114.02
2019-05-29T16:42:20.566Z,97117.50
2019-05-29T16:44:52.035Z,97116.30
2019-05-29T16:47:24.544Z,97124.47
2019-05-29T16:49:58.339Z,97127.86
2019-05-29T16:52:29.842Z,97139.64
2019-05-29T16:55:01.278Z,97143.20
2019-05-29T16:57:33.425Z,97141.70
2019-05-29T17:00:28.093Z,97135.30
2019-05-29T17:03:02.495Z,97140.67
2019-05-29T17:05:40.145Z,97141.86
2019-05-29T17:08:18.041Z,97146.59
2019-05-29T17:10:55.312Z,97154.72
2019-05-29T17:13:29.426Z,97152.98
2019-05-29T17:16:05.273Z,97172.16
2019-05-29T17:18:36.510Z,97164.26
2019-05-29T17:21:09.622Z,97164.86
2019-05-29T17:24:09.739Z,97160.91
2019-05-29T17:27:10.200Z,97167.00
2019-05-29T17:30:09.851Z,97161.48
2019-05-29T17:32:46.218Z,97186.64
2019-05-29T17:35:35.749Z,97173.28
2019-05-29T17:38:34.940Z,97173.53
2019-05-29T17:41:34.238Z,97180.14
2019-05-29T17:44:30.832Z,97170.95
2019-05-29T17:47:25.755Z,97182.42
2019-05-29T17:50:23.309Z,97185.61
2019-05-29T17:53:22.453Z,97188.70
2019-05-29T17:56:32.018Z,97191.42
2019-05-29T17:59:13.796Z,97192.32
2019-05-29T18:02:11.892Z,97196.67
2019-05-29T18:05:09.631Z,97200.44
2019-05-29T18:08:03.633Z,97199.14
2019-05-29T18:10:57.284Z,97207.27
2019-05-29T18:13:50.678Z,97205.09
2019-05-29T18:16:42.091Z,97208.31
2019-05-29T18:19:36.765Z,97219.70
2019-05-29T18:22:46.577Z,97212.83
2019-05-29T18:25:24.009Z,97210.80
2019-05-29T18:28:24.032Z,97221.39
2019-05-29T18:31:13.331Z,97223.56
2019-05-29T18:34:13.920Z,97228.34
2019-05-29T18:37:05.871Z,97240.05
2019-05-29T18:40:00.708Z,97238.02
2019-05-29T18:42:53.732Z,97242.54
2019-05-29T18:45:48.243Z,97248.09
2019-05-29T18:48:45.784Z,97260.61
2019-05-29T18:51:36.864Z,97258.22
2019-05-29T18:54:35.613Z,97268.26
2019-05-29T18:57:33.132Z,97270.95
2019-05-29T19:00:33.082Z,97269.13
2019-05-29T19:03:27.527Z,97269.16
2019-05-29T19:06:25.555Z,97262.55
2019-05-29T19:09:19.228Z,97268.37
2019-05-29T19:12:23.725Z,97276.36
2019-05-29T19:15:32.115Z,97278.48
2019-05-29T19:18:32.392Z,97298.33
2019-05-29T19:21:38.758Z,97302.30
2019-05-29T19:24:35.568Z,97309.97
2019-05-29T19:27:37.668Z,97316.31
2019-05-29T19:30:29.567Z,97320.81
2019-05-29T19:33:31.347Z,97330.59
2019-05-29T19:36:13.754Z,97336.20
2019-05-29T19:39:09.913Z,97340.44
2019-05-29T19:42:07.832Z,97340.75
2019-05-29T19:45:09.912Z,97347.91
2019-05-29T19:48:12.464Z,97359.55
2019-05-29T19:51:10.589Z,97356.14
2019-05-29T19:54:00.232Z,97356.37
2019-05-29T19:56:59.889Z,97360.88
2019-05-29T19:59:49.804Z,97362.23
2019-05-29T20:02:51.659Z,97366.16
2019-05-29T20:05:59.796Z,97365.14
2019-05-29T20:09:04.954Z,97366.20
2019-05-29T20:12:07.797Z,97370.16
2019-05-29T20:15:06.843Z,97374.93
2019-05-29T20:18:08.190Z,97370.47
2019-05-29T20:21:08.133Z,97381.05
2019-05-29T20:24:02.545Z,97387.41
2019-05-29T20:26:54.972Z,97383.70
2019-05-29T20:29:49.446Z,97382.33
2019-05-29T20:32:23.007Z,97381.50
2019-05-29T20:34:55.734Z,97384.09
2019-05-29T20:37:34.060Z,97384.71
2019-05-29T20:40:14.132Z,97384.41
2019-05-29T20:42:49.983Z,97389.44
2019-05-29T20:45:21.957Z,97397.89
2019-05-29T20:47:56.510Z,97402.66
2019-05-29T20:50:44.772Z,97408.25
2019-05-29T20:53:21.147Z,97409.35
2019-05-29T20:56:39.803Z,97408.30
2019-05-29T20:59:18.163Z,97406.97
2019-05-29T21:01:51.532Z,97406.22
2019-05-29T21:05:02.612Z,97406.22
2019-05-29T21:08:36.846Z,97405.20
2019-05-29T21:11:56.382Z,97408.67
2019-05-29T21:15:15.555Z,97411.34
2019-05-29T21:27:35.083Z,97425.37
2019-05-29T21:30:17.583Z,97430.40
2019-05-29T21:33:17.599Z,97439.86
2019-05-29T21:35:51.509Z,97438.78
2019-05-29T21:38:29.188Z,97439.56
2019-05-29T21:41:00.722Z,97435.08
2019-05-29T21:43:36.952Z,97438.83
2019-05-29T21:46:11.448Z,97438.80
2019-05-29T21:48:51.393Z,97441.20
2019-05-29T21:52:12.712Z,97452.81
2019-05-29T21:54:45.955Z,97456.55
2019-05-29T21:57:34.387Z,97449.69
2019-05-29T22:00:30.164Z,97452.63
2019-05-29T22:03:36.339Z,97450.22
2019-05-29T22:06:13.974Z,97455.51
2019-05-29T22:08:52.877Z,97442.77
2019-05-29T22:12:29.027Z,97445.95
2019-05-29T22:15:34.993Z,97446.23
2019-05-29T22:18:12.725Z,97452.86
2019-05-29T22:20:45.174Z,97451.28
2019-05-29T22:23:16.570Z,97456.03
2019-05-29T22:26:26.912Z,97463.72
2019-05-29T22:29:15.673Z,97462.63
2019-05-29T22:32:21.225Z,97462.66
2019-05-29T22:35:39.139Z,97469.50
2019-05-29T22:38:37.356Z,97477.69
2019-05-29T22:41:15.737Z,97475.09
2019-05-29T22:43:47.763Z,97479.01
2019-05-29T22:46:20.178Z,97479.02
2019-05-29T22:49:29.886Z,97477.99
2019-05-29T22:52:11.012Z,97484.83
2019-05-29T22:55:09.617Z,97478.22
2019-05-29T22:58:22.273Z,97482.97
2019-05-29T23:01:17.259Z,97492.23
2019-05-29T23:04:38.675Z,97488.30
2019-05-29T23:07:58.720Z,97487.48
2019-05-29T23:10:41.940Z,97486.95
2019-05-29T23:13:14.870Z,97484.33
2019-05-29T23:15:47.767Z,97485.89
2019-05-29T23:18:24.827Z,97494.08
2019-05-29T23:21:31.038Z,97492.23
2019-05-29T23:24:46.775Z,97482.99
2019-05-29T23:28:11.441Z,97485.09
2019-05-29T23:31:36.101Z,97490.67
2019-05-29T23:34:55.039Z,97486.70
2019-05-29T23:38:10.772Z,97485.66
2019-05-29T23:41:12.462Z,97492.25
2019-05-29T23:44:18.150Z,97490.41
2019-05-29T23:47:09.290Z,97489.08
2019-05-29T23:50:26.551Z,97489.34
2019-05-29T23:53:19.075Z,97488.03
2019-05-29T23:55:54.161Z,97485.66
2019-05-29T23:58:27.143Z,97485.63
